createdAt,value
2023-05-10T00:03:21.338Z,96.6
2023-05-10T00:08:21.279Z,97
2023-05-10T00:13:21.288Z,97.1
2023-05-10T00:18:21.282Z,97.5
2023-05-10T00:23:21.257Z,97.7
2023-05-10T00:28:21.259Z,98.1
2023-05-10T00:33:21.242Z,98.3
2023-05-10T00:38:21.249Z,98.6
2023-05-10T00:43:21.245Z,99
2023-05-10T00:48:21.242Z,99.2
2023-05-10T00:53:21.218Z,99.2
2023-05-10T00:58:21.222Z,99.3
2023-05-10T01:03:21.244Z,99.5
2023-05-10T01:08:21.204Z,99.7
2023-05-10T01:13:21.252Z,99.8
2023-05-10T01:18:21.196Z,99.8
2023-05-10T01:23:21.192Z,100
2023-05-10T01:28:21.222Z,100
2023-05-10T01:33:21.196Z,100
2023-05-10T01:38:21.182Z,100
2023-05-10T01:43:21.170Z,100
2023-05-10T01:48:21.161Z,100
2023-05-10T01:53:21.164Z,100
2023-05-10T01:58:21.151Z,100
2023-05-10T02:03:21.138Z,100
2023-05-10T02:08:21.155Z,100
2023-05-10T02:13:21.158Z,100
2023-05-10T02:18:21.139Z,100
2023-05-10T02:23:21.131Z,100
2023-05-10T02:28:21.105Z,100
2023-05-10T02:33:21.173Z,100
2023-05-10T02:38:21.103Z,100
2023-05-10T02:43:21.110Z,100
2023-05-10T02:48:21.105Z,100
2023-05-10T02:53:21.094Z,100
2023-05-10T02:58:21.110Z,100
2023-05-10T03:03:21.083Z,100
2023-05-10T03:08:21.078Z,100
2023-05-10T03:13:21.139Z,100
2023-05-10T03:18:21.054Z,100
2023-05-10T03:23:21.046Z,100
2023-05-10T03:28:21.064Z,100
2023-05-10T03:33:21.036Z,100
2023-05-10T03:38:21.064Z,100
2023-05-10T03:43:21.044Z,100
2023-05-10T03:48:21.033Z,100
2023-05-10T03:53:21.033Z,100
2023-05-10T03:58:21.022Z,100
2023-05-10T04:03:21.114Z,100
2023-05-10T04:08:20.999Z,100
2023-05-10T04:13:21.118Z,100
2023-05-10T04:28:20.978Z,100
2023-05-10T04:58:20.943Z,100
2023-05-10T05:03:21.011Z,99.7
2023-05-10T05:18:20.939Z,98.1
2023-05-10T06:03:21.071Z,95.4
2023-05-10T06:08:20.872Z,96
2023-05-10T06:23:20.830Z,95.4
2023-05-10T06:28:20.839Z,95.5
2023-05-10T06:33:20.840Z,94.8
2023-05-10T06:38:20.835Z,94.2
2023-05-10T07:03:20.860Z,94.1
2023-05-10T07:08:20.807Z,94.2
2023-05-10T07:13:20.863Z,93.9
2023-05-10T07:18:20.795Z,93.3
2023-05-10T07:23:20.782Z,91.7
2023-05-10T07:28:20.788Z,91.3
2023-05-10T07:33:20.791Z,90.7
2023-05-10T07:38:20.764Z,89.8
2023-05-10T07:43:20.785Z,90.6
2023-05-10T07:48:20.739Z,91.6
2023-05-10T07:53:20.744Z,91.3
2023-05-10T07:58:20.747Z,90.4
2023-05-10T08:08:20.712Z,88.9
2023-05-10T08:13:20.709Z,89.8
2023-05-10T08:18:22.090Z,89.2
2023-05-10T08:28:20.686Z,87.4
2023-05-10T08:38:20.673Z,84.7
2023-05-10T08:43:20.707Z,83.7
2023-05-10T08:48:20.673Z,82.7
2023-05-10T08:53:20.658Z,82.4
2023-05-10T09:03:20.653Z,80.7
2023-05-10T09:08:20.671Z,80
2023-05-10T09:13:20.646Z,79.4
2023-05-10T09:28:20.615Z,81.1
2023-05-10T09:33:20.610Z,82.6
2023-05-10T09:43:20.593Z,84.5
2023-05-10T10:18:20.588Z,85.8
2023-05-10T10:23:20.592Z,81.6
2023-05-10T10:43:20.509Z,81.1
2023-05-10T10:48:20.564Z,77.3
2023-05-10T10:53:20.557Z,77.5
2023-05-10T10:58:20.570Z,75.9
2023-05-10T11:03:20.564Z,72.4
2023-05-10T11:08:20.599Z,74.5
2023-05-10T11:13:20.557Z,75.1
2023-05-10T11:18:20.590Z,72.6
2023-05-10T11:23:20.473Z,77.1
2023-05-10T11:28:20.484Z,76.8
2023-05-10T11:33:20.525Z,78.4
2023-05-10T11:38:20.486Z,80.6
2023-05-10T11:43:20.479Z,83.5
2023-05-10T11:48:20.458Z,84
2023-05-10T11:53:20.454Z,83.7
2023-05-10T11:58:20.448Z,83.6
2023-05-10T12:03:20.458Z,84.1
2023-05-10T12:08:20.431Z,84.7
2023-05-10T12:13:20.432Z,82.9
2023-05-10T12:18:20.449Z,82.9
2023-05-10T12:23:20.391Z,83
2023-05-10T12:28:20.387Z,83.6
2023-05-10T12:33:20.412Z,82
2023-05-10T12:38:20.372Z,80.5
2023-05-10T12:43:25.361Z,78
2023-05-10T12:48:20.394Z,78.4
2023-05-10T12:53:20.350Z,79.1
2023-05-10T12:58:31.875Z,81.8
2023-05-10T13:03:20.361Z,81.1
2023-05-10T13:08:20.359Z,80.3
2023-05-10T13:13:20.329Z,82.4
2023-05-10T13:18:20.385Z,84.7
2023-05-10T13:23:20.325Z,85.4
2023-05-10T13:28:20.309Z,86.4
2023-05-10T13:33:20.306Z,86.7
2023-05-10T13:38:21.742Z,88.8
2023-05-10T13:43:20.285Z,88.6
2023-05-10T13:48:20.299Z,89.4
2023-05-10T13:53:20.307Z,89.8
2023-05-10T13:58:20.292Z,90.3
2023-05-10T14:03:20.340Z,91.7
2023-05-10T14:08:20.288Z,90.9
2023-05-10T14:13:20.268Z,91.2
2023-05-10T14:18:20.333Z,89.7
2023-05-10T14:23:20.245Z,90.9
2023-05-10T14:28:20.249Z,90.6
2023-05-10T14:33:20.247Z,91.6
2023-05-10T14:38:20.244Z,91.7
2023-05-10T14:43:20.220Z,91.7
2023-05-10T14:48:20.241Z,92.2
2023-05-10T14:53:20.212Z,92.9
2023-05-10T14:58:20.238Z,92.8
2023-05-10T15:03:20.271Z,93.2
2023-05-10T15:08:20.196Z,93.8
2023-05-10T15:13:20.210Z,93.3
2023-05-10T15:18:20.193Z,93.9
2023-05-10T15:23:20.179Z,93.8
2023-05-10T15:28:20.198Z,93.3
2023-05-10T15:33:20.156Z,93.4
2023-05-10T15:38:20.150Z,93.8
2023-05-10T15:43:20.134Z,93.8
2023-05-10T15:48:20.147Z,94
2023-05-10T15:53:20.154Z,94.1
2023-05-10T15:58:20.151Z,94.1
2023-05-10T16:03:20.174Z,94.3
2023-05-10T16:08:20.121Z,94.5
2023-05-10T16:13:20.121Z,94
2023-05-10T16:18:20.192Z,93.4
2023-05-10T16:23:20.114Z,94.2
2023-05-10T16:28:20.113Z,94
2023-05-10T16:33:20.104Z,94.5
2023-05-10T16:38:20.075Z,94.6
2023-05-10T16:43:20.108Z,95.7
2023-05-10T16:48:20.091Z,95.5
2023-05-10T16:53:20.087Z,94.9
2023-05-10T16:58:20.071Z,95.7
2023-05-10T17:03:20.105Z,95.8
2023-05-10T17:08:20.082Z,96.1
2023-05-10T17:13:20.053Z,96.7
2023-05-10T17:18:20.105Z,96.8
2023-05-10T17:23:20.050Z,97.1
2023-05-10T17:28:20.061Z,97.4
2023-05-10T17:33:20.037Z,97.1
2023-05-10T17:38:20.053Z,97.1
2023-05-10T17:43:20.024Z,97.4
2023-05-10T17:48:20.020Z,97.2
2023-05-10T17:53:20.013Z,97.8
2023-05-10T17:58:19.997Z,98
2023-05-10T18:03:20.011Z,98.2
2023-05-10T18:08:19.996Z,98.7
2023-05-10T18:13:19.980Z,98.4
2023-05-10T18:18:19.984Z,98.6
2023-05-10T18:23:19.980Z,99
2023-05-10T18:28:19.962Z,99.3
2023-05-10T18:33:19.958Z,99.3
2023-05-10T18:38:19.971Z,99.4
2023-05-10T18:43:19.966Z,99
2023-05-10T18:53:19.932Z,99.2
2023-05-10T19:08:19.925Z,98.6
2023-05-10T19:28:19.911Z,98.1
2023-05-10T19:33:19.901Z,98
2023-05-10T19:43:19.882Z,97.9
2023-05-10T19:48:19.902Z,98.3
2023-05-10T19:53:19.879Z,98.8
2023-05-10T20:13:19.853Z,99.4
2023-05-10T20:28:19.849Z,99.5
2023-05-10T20:43:19.830Z,99.2
2023-05-10T20:48:19.849Z,99.7
2023-05-10T20:53:19.823Z,99.8
2023-05-10T21:23:19.792Z,100
2023-05-10T21:28:19.787Z,100
2023-05-10T21:38:19.784Z,100
2023-05-10T21:43:19.778Z,100
2023-05-10T21:48:19.786Z,100
2023-05-10T21:53:19.771Z,100
2023-05-10T21:58:19.747Z,100
2023-05-10T22:03:19.847Z,100
2023-05-10T22:08:19.743Z,100
2023-05-10T22:13:19.753Z,100
2023-05-10T22:18:19.762Z,100
2023-05-10T22:23:19.757Z,100
2023-05-10T22:28:19.732Z,100
2023-05-10T22:58:19.690Z,100
2023-05-10T23:03:19.691Z,100
2023-05-10T23:13:19.662Z,100
2023-05-10T23:33:19.659Z,100
2023-05-10T23:43:19.659Z,100
2023-05-10T23:48:19.645Z,100
2023-05-10T23:58:19.652Z,100
